sensor_id;sensor_type;location;lat;lon;timestamp;P1;durP1;ratioP1;P2;durP2;ratioP2
48621;SDS011;34421;48.944;9.460;2022-07-26T00:01:22;3.10;;;0.70;;
48621;SDS011;34421;48.944;9.460;2022-07-26T00:03:48;1.05;;;0.55;;
48621;SDS011;34421;48.944;9.460;2022-07-26T00:06:14;1.20;;;0.60;;
48621;SDS011;34421;48.944;9.460;2022-07-26T00:08:39;1.58;;;0.60;;
48621;SDS011;34421;48.944;9.460;2022-07-26T00:11:05;1.10;;;0.47;;
48621;SDS011;34421;48.944;9.460;2022-07-26T00:13:30;0.80;;;0.50;;
48621;SDS011;34421;48.944;9.460;2022-07-26T00:15:56;1.30;;;0.60;;
48621;SDS011;34421;48.944;9.460;2022-07-26T00:18:22;0.95;;;0.50;;
48621;SDS011;34421;48.944;9.460;2022-07-26T00:20:47;1.30;;;0.60;;
48621;SDS011;34421;48.944;9.460;2022-07-26T00:23:13;0.77;;;0.50;;
48621;SDS011;34421;48.944;9.460;2022-07-26T00:25:38;1.17;;;0.47;;
48621;SDS011;34421;48.944;9.460;2022-07-26T00:28:04;1.08;;;0.57;;
48621;SDS011;34421;48.944;9.460;2022-07-26T00:30:30;1.35;;;0.65;;
48621;SDS011;34421;48.944;9.460;2022-07-26T00:32:56;1.15;;;0.50;;
48621;SDS011;34421;48.944;9.460;2022-07-26T00:35:21;1.65;;;0.68;;
48621;SDS011;34421;48.944;9.460;2022-07-26T00:37:47;1.60;;;0.70;;
48621;SDS011;34421;48.944;9.460;2022-07-26T00:40:13;0.95;;;0.55;;
48621;SDS011;34421;48.944;9.460;2022-07-26T00:42:39;1.40;;;0.47;;
48621;SDS011;34421;48.944;9.460;2022-07-26T00:45:05;0.85;;;0.43;;
48621;SDS011;34421;48.944;9.460;2022-07-26T00:47:32;1.17;;;0.60;;
48621;SDS011;34421;48.944;9.460;2022-07-26T00:49:57;2.38;;;0.75;;
48621;SDS011;34421;48.944;9.460;2022-07-26T00:52:23;0.73;;;0.35;;
48621;SDS011;34421;48.944;9.460;2022-07-26T00:54:50;1.38;;;0.60;;
48621;SDS011;34421;48.944;9.460;2022-07-26T00:57:18;1.05;;;0.60;;
48621;SDS011;34421;48.944;9.460;2022-07-26T00:59:45;1.23;;;0.50;;
48621;SDS011;34421;48.944;9.460;2022-07-26T01:02:12;1.63;;;0.80;;
48621;SDS011;34421;48.944;9.460;2022-07-26T01:04:37;0.50;;;0.30;;
48621;SDS011;34421;48.944;9.460;2022-07-26T01:07:03;1.40;;;0.57;;
48621;SDS011;34421;48.944;9.460;2022-07-26T01:09:30;3.28;;;0.50;;
48621;SDS011;34421;48.944;9.460;2022-07-26T01:11:55;2.03;;;0.70;;
48621;SDS011;34421;48.944;9.460;2022-07-26T01:14:22;1.55;;;0.45;;
48621;SDS011;34421;48.944;9.460;2022-07-26T01:16:48;0.80;;;0.50;;
48621;SDS011;34421;48.944;9.460;2022-07-26T01:19:13;1.35;;;0.70;;
48621;SDS011;34421;48.944;9.460;2022-07-26T01:21:39;1.58;;;0.63;;
48621;SDS011;34421;48.944;9.460;2022-07-26T01:24:05;2.08;;;0.88;;
48621;SDS011;34421;48.944;9.460;2022-07-26T01:26:30;2.35;;;0.88;;
48621;SDS011;34421;48.944;9.460;2022-07-26T01:28:56;2.65;;;0.65;;
48621;SDS011;34421;48.944;9.460;2022-07-26T01:31:21;2.08;;;0.60;;
48621;SDS011;34421;48.944;9.460;2022-07-26T01:33:47;1.80;;;0.90;;
48621;SDS011;34421;48.944;9.460;2022-07-26T01:36:13;2.08;;;0.80;;
48621;SDS011;34421;48.944;9.460;2022-07-26T01:38:39;1.63;;;0.68;;
48621;SDS011;34421;48.944;9.460;2022-07-26T01:41:05;0.88;;;0.60;;
48621;SDS011;34421;48.944;9.460;2022-07-26T01:43:30;2.13;;;0.50;;
48621;SDS011;34421;48.944;9.460;2022-07-26T01:45:56;1.23;;;0.50;;
48621;SDS011;34421;48.944;9.460;2022-07-26T01:48:22;0.73;;;0.40;;
48621;SDS011;34421;48.944;9.460;2022-07-26T01:50:47;2.05;;;0.40;;
48621;SDS011;34421;48.944;9.460;2022-07-26T01:53:13;1.23;;;0.50;;
48621;SDS011;34421;48.944;9.460;2022-07-26T01:55:38;1.13;;;0.40;;
48621;SDS011;34421;48.944;9.460;2022-07-26T01:58:04;1.63;;;0.63;;
48621;SDS011;34421;48.944;9.460;2022-07-26T02:00:30;1.52;;;0.65;;
48621;SDS011;34421;48.944;9.460;2022-07-26T02:02:57;0.90;;;0.40;;
48621;SDS011;34421;48.944;9.460;2022-07-26T02:05:22;2.40;;;0.47;;
48621;SDS011;34421;48.944;9.460;2022-07-26T02:07:48;1.05;;;0.60;;
48621;SDS011;34421;48.944;9.460;2022-07-26T02:10:14;1.77;;;0.77;;
48621;SDS011;34421;48.944;9.460;2022-07-26T02:12:39;1.25;;;0.50;;
48621;SDS011;34421;48.944;9.460;2022-07-26T02:15:06;2.20;;;0.65;;
48621;SDS011;34421;48.944;9.460;2022-07-26T02:17:32;2.03;;;0.80;;
48621;SDS011;34421;48.944;9.460;2022-07-26T02:19:58;0.50;;;0.43;;
48621;SDS011;34421;48.944;9.460;2022-07-26T02:22:23;1.40;;;0.60;;
48621;SDS011;34421;48.944;9.460;2022-07-26T02:24:49;0.65;;;0.32;;
48621;SDS011;34421;48.944;9.460;2022-07-26T02:27:15;1.42;;;0.50;;
48621;SDS011;34421;48.944;9.460;2022-07-26T02:29:41;1.17;;;0.47;;
48621;SDS011;34421;48.944;9.460;2022-07-26T02:32:06;0.75;;;0.32;;
48621;SDS011;34421;48.944;9.460;2022-07-26T02:34:32;1.17;;;0.50;;
48621;SDS011;34421;48.944;9.460;2022-07-26T02:36:58;1.02;;;0.50;;
48621;SDS011;34421;48.944;9.460;2022-07-26T02:39:24;1.02;;;0.52;;
48621;SDS011;34421;48.944;9.460;2022-07-26T02:41:52;1.95;;;0.50;;
48621;SDS011;34421;48.944;9.460;2022-07-26T02:44:22;1.55;;;0.50;;
48621;SDS011;34421;48.944;9.460;2022-07-26T02:46:49;1.30;;;0.40;;
48621;SDS011;34421;48.944;9.460;2022-07-26T02:49:14;1.40;;;0.52;;
48621;SDS011;34421;48.944;9.460;2022-07-26T02:51:40;1.85;;;0.60;;
48621;SDS011;34421;48.944;9.460;2022-07-26T02:54:05;0.85;;;0.30;;
48621;SDS011;34421;48.944;9.460;2022-07-26T02:56:30;0.70;;;0.40;;
48621;SDS011;34421;48.944;9.460;2022-07-26T02:58:56;1.17;;;0.45;;
48621;SDS011;34421;48.944;9.460;2022-07-26T03:01:21;1.20;;;0.50;;
48621;SDS011;34421;48.944;9.460;2022-07-26T03:03:47;0.70;;;0.40;;
48621;SDS011;34421;48.944;9.460;2022-07-26T03:06:12;1.20;;;0.57;;
48621;SDS011;34421;48.944;9.460;2022-07-26T03:08:38;1.00;;;0.45;;
48621;SDS011;34421;48.944;9.460;2022-07-26T03:11:03;1.08;;;0.50;;
48621;SDS011;34421;48.944;9.460;2022-07-26T03:13:29;1.67;;;0.50;;
48621;SDS011;34421;48.944;9.460;2022-07-26T03:15:54;0.77;;;0.30;;
48621;SDS011;34421;48.944;9.460;2022-07-26T03:18:20;1.80;;;0.68;;
48621;SDS011;34421;48.944;9.460;2022-07-26T03:20:45;0.95;;;0.40;;
48621;SDS011;34421;48.944;9.460;2022-07-26T03:23:11;1.67;;;0.70;;
48621;SDS011;34421;48.944;9.460;2022-07-26T03:25:37;1.23;;;0.40;;
48621;SDS011;34421;48.944;9.460;2022-07-26T03:28:02;2.03;;;0.55;;
48621;SDS011;34421;48.944;9.460;2022-07-26T03:30:28;1.65;;;0.52;;
48621;SDS011;34421;48.944;9.460;2022-07-26T03:32:53;1.65;;;0.47;;
48621;SDS011;34421;48.944;9.460;2022-07-26T03:35:19;1.95;;;0.70;;
48621;SDS011;34421;48.944;9.460;2022-07-26T03:37:44;1.13;;;0.55;;
48621;SDS011;34421;48.944;9.460;2022-07-26T03:40:10;2.45;;;0.68;;
48621;SDS011;34421;48.944;9.460;2022-07-26T03:42:35;0.88;;;0.45;;
48621;SDS011;34421;48.944;9.460;2022-07-26T03:45:01;0.90;;;0.40;;
48621;SDS011;34421;48.944;9.460;2022-07-26T03:47:26;2.40;;;0.80;;
48621;SDS011;34421;48.944;9.460;2022-07-26T03:49:52;1.05;;;0.52;;
48621;SDS011;34421;48.944;9.460;2022-07-26T03:52:17;1.40;;;0.40;;
48621;SDS011;34421;48.944;9.460;2022-07-26T03:54:43;1.08;;;0.60;;
48621;SDS011;34421;48.944;9.460;2022-07-26T03:57:08;1.52;;;0.60;;
48621;SDS011;34421;48.944;9.460;2022-07-26T03:59:33;1.00;;;0.47;;
48621;SDS011;34421;48.944;9.460;2022-07-26T04:01:59;0.85;;;0.60;;
48621;SDS011;34421;48.944;9.460;2022-07-26T04:04:25;1.10;;;0.70;;
48621;SDS011;34421;48.944;9.460;2022-07-26T04:06:50;2.35;;;0.65;;
48621;SDS011;34421;48.944;9.460;2022-07-26T04:09:15;1.23;;;0.55;;
48621;SDS011;34421;48.944;9.460;2022-07-26T04:11:41;2.15;;;0.77;;
48621;SDS011;34421;48.944;9.460;2022-07-26T04:14:07;0.63;;;0.35;;
48621;SDS011;34421;48.944;9.460;2022-07-26T04:16:33;0.88;;;0.57;;
48621;SDS011;34421;48.944;9.460;2022-07-26T04:18:58;0.98;;;0.50;;
48621;SDS011;34421;48.944;9.460;2022-07-26T04:21:24;0.75;;;0.40;;
48621;SDS011;34421;48.944;9.460;2022-07-26T04:23:49;1.52;;;0.73;;
48621;SDS011;34421;48.944;9.460;2022-07-26T04:26:15;1.02;;;0.50;;
48621;SDS011;34421;48.944;9.460;2022-07-26T04:28:41;0.80;;;0.50;;
48621;SDS011;34421;48.944;9.460;2022-07-26T04:31:06;1.02;;;0.45;;
48621;SDS011;34421;48.944;9.460;2022-07-26T04:33:32;1.05;;;0.40;;
48621;SDS011;34421;48.944;9.460;2022-07-26T04:35:58;0.90;;;0.50;;
48621;SDS011;34421;48.944;9.460;2022-07-26T04:38:24;1.23;;;0.60;;
48621;SDS011;34421;48.944;9.460;2022-07-26T04:40:50;0.95;;;0.60;;
48621;SDS011;34421;48.944;9.460;2022-07-26T04:43:16;1.73;;;0.75;;
48621;SDS011;34421;48.944;9.460;2022-07-26T04:45:43;0.80;;;0.40;;
48621;SDS011;34421;48.944;9.460;2022-07-26T04:48:12;1.25;;;0.40;;
48621;SDS011;34421;48.944;9.460;2022-07-26T04:50:38;0.80;;;0.40;;
48621;SDS011;34421;48.944;9.460;2022-07-26T04:53:03;1.73;;;0.47;;
48621;SDS011;34421;48.944;9.460;2022-07-26T04:55:29;1.48;;;0.40;;
48621;SDS011;34421;48.944;9.460;2022-07-26T04:57:54;0.98;;;0.50;;
48621;SDS011;34421;48.944;9.460;2022-07-26T05:00:20;1.52;;;0.63;;
48621;SDS011;34421;48.944;9.460;2022-07-26T05:02:49;1.50;;;0.60;;
48621;SDS011;34421;48.944;9.460;2022-07-26T05:05:19;1.38;;;0.73;;
48621;SDS011;34421;48.944;9.460;2022-07-26T05:07:54;1.95;;;0.88;;
48621;SDS011;34421;48.944;9.460;2022-07-26T05:10:21;2.38;;;1.13;;
48621;SDS011;34421;48.944;9.460;2022-07-26T05:12:52;1.45;;;0.70;;
48621;SDS011;34421;48.944;9.460;2022-07-26T05:15:17;1.20;;;0.70;;
48621;SDS011;34421;48.944;9.460;2022-07-26T05:17:43;2.10;;;0.80;;
48621;SDS011;34421;48.944;9.460;2022-07-26T05:20:09;1.13;;;0.52;;
48621;SDS011;34421;48.944;9.460;2022-07-26T05:22:36;1.70;;;0.60;;
48621;SDS011;34421;48.944;9.460;2022-07-26T05:25:03;2.30;;;0.90;;
48621;SDS011;34421;48.944;9.460;2022-07-26T05:27:29;2.40;;;0.90;;
48621;SDS011;34421;48.944;9.460;2022-07-26T05:29:54;1.80;;;0.88;;
48621;SDS011;34421;48.944;9.460;2022-07-26T05:32:20;1.23;;;0.50;;
48621;SDS011;34421;48.944;9.460;2022-07-26T05:34:46;1.45;;;1.00;;
48621;SDS011;34421;48.944;9.460;2022-07-26T05:37:11;1.95;;;0.90;;
48621;SDS011;34421;48.944;9.460;2022-07-26T05:39:37;2.00;;;0.90;;
48621;SDS011;34421;48.944;9.460;2022-07-26T05:42:02;1.77;;;0.70;;
48621;SDS011;34421;48.944;9.460;2022-07-26T05:44:28;2.17;;;0.77;;
48621;SDS011;34421;48.944;9.460;2022-07-26T05:46:53;1.40;;;0.70;;
48621;SDS011;34421;48.944;9.460;2022-07-26T05:49:18;1.10;;;0.70;;
48621;SDS011;34421;48.944;9.460;2022-07-26T05:51:43;0.80;;;0.40;;
48621;SDS011;34421;48.944;9.460;2022-07-26T05:54:09;1.90;;;0.63;;
48621;SDS011;34421;48.944;9.460;2022-07-26T05:56:34;1.95;;;0.85;;
48621;SDS011;34421;48.944;9.460;2022-07-26T05:58:59;1.50;;;0.80;;
48621;SDS011;34421;48.944;9.460;2022-07-26T06:01:25;1.02;;;0.50;;
48621;SDS011;34421;48.944;9.460;2022-07-26T06:03:50;1.45;;;0.70;;
48621;SDS011;34421;48.944;9.460;2022-07-26T06:06:16;1.27;;;0.57;;
48621;SDS011;34421;48.944;9.460;2022-07-26T06:08:41;1.23;;;0.50;;
48621;SDS011;34421;48.944;9.460;2022-07-26T06:11:06;1.63;;;0.70;;
48621;SDS011;34421;48.944;9.460;2022-07-26T06:13:32;1.35;;;0.57;;
48621;SDS011;34421;48.944;9.460;2022-07-26T06:15:57;1.38;;;0.68;;
48621;SDS011;34421;48.944;9.460;2022-07-26T06:18:23;1.95;;;0.80;;
48621;SDS011;34421;48.944;9.460;2022-07-26T06:20:48;0.95;;;0.50;;
48621;SDS011;34421;48.944;9.460;2022-07-26T06:23:13;1.10;;;0.45;;
48621;SDS011;34421;48.944;9.460;2022-07-26T06:25:39;1.65;;;0.70;;
48621;SDS011;34421;48.944;9.460;2022-07-26T06:28:05;2.90;;;0.73;;
48621;SDS011;34421;48.944;9.460;2022-07-26T06:30:32;1.17;;;0.60;;
48621;SDS011;34421;48.944;9.460;2022-07-26T06:32:58;1.40;;;0.50;;
48621;SDS011;34421;48.944;9.460;2022-07-26T06:35:23;1.65;;;0.70;;
48621;SDS011;34421;48.944;9.460;2022-07-26T06:37:49;1.52;;;0.70;;
48621;SDS011;34421;48.944;9.460;2022-07-26T06:40:15;1.08;;;0.55;;
48621;SDS011;34421;48.944;9.460;2022-07-26T06:42:40;1.95;;;0.80;;
48621;SDS011;34421;48.944;9.460;2022-07-26T06:45:06;1.42;;;0.57;;
48621;SDS011;34421;48.944;9.460;2022-07-26T06:47:32;1.60;;;0.95;;
48621;SDS011;34421;48.944;9.460;2022-07-26T06:49:59;1.42;;;0.70;;
48621;SDS011;34421;48.944;9.460;2022-07-26T06:52:25;2.38;;;1.25;;
48621;SDS011;34421;48.944;9.460;2022-07-26T06:54:50;1.77;;;0.80;;
48621;SDS011;34421;48.944;9.460;2022-07-26T06:57:15;1.42;;;0.60;;
48621;SDS011;34421;48.944;9.460;2022-07-26T06:59:41;1.08;;;0.70;;
48621;SDS011;34421;48.944;9.460;2022-07-26T07:02:06;1.45;;;0.70;;
48621;SDS011;34421;48.944;9.460;2022-07-26T07:04:32;1.05;;;0.52;;
48621;SDS011;34421;48.944;9.460;2022-07-26T07:06:57;1.00;;;0.45;;
48621;SDS011;34421;48.944;9.460;2022-07-26T07:09:27;1.10;;;0.70;;
48621;SDS011;34421;48.944;9.460;2022-07-26T07:11:53;1.00;;;0.60;;
48621;SDS011;34421;48.944;9.460;2022-07-26T07:14:19;1.38;;;0.63;;
48621;SDS011;34421;48.944;9.460;2022-07-26T07:16:44;1.00;;;0.60;;
48621;SDS011;34421;48.944;9.460;2022-07-26T07:19:09;1.75;;;0.70;;
48621;SDS011;34421;48.944;9.460;2022-07-26T07:21:35;1.10;;;0.50;;
48621;SDS011;34421;48.944;9.460;2022-07-26T07:24:00;1.45;;;0.52;;
48621;SDS011;34421;48.944;9.460;2022-07-26T07:26:25;0.93;;;0.47;;
48621;SDS011;34421;48.944;9.460;2022-07-26T07:28:51;1.67;;;0.60;;
48621;SDS011;34421;48.944;9.460;2022-07-26T07:31:16;2.10;;;0.52;;
48621;SDS011;34421;48.944;9.460;2022-07-26T07:33:42;0.75;;;0.40;;
48621;SDS011;34421;48.944;9.460;2022-07-26T07:36:07;1.98;;;0.60;;
48621;SDS011;34421;48.944;9.460;2022-07-26T07:38:33;1.63;;;0.63;;
48621;SDS011;34421;48.944;9.460;2022-07-26T07:40:58;2.08;;;0.68;;
48621;SDS011;34421;48.944;9.460;2022-07-26T07:43:23;1.02;;;0.50;;
48621;SDS011;34421;48.944;9.460;2022-07-26T07:45:49;0.70;;;0.40;;
48621;SDS011;34421;48.944;9.460;2022-07-26T07:48:14;2.15;;;0.50;;
48621;SDS011;34421;48.944;9.460;2022-07-26T07:50:40;1.83;;;0.50;;
48621;SDS011;34421;48.944;9.460;2022-07-26T07:53:05;2.33;;;0.75;;
48621;SDS011;34421;48.944;9.460;2022-07-26T07:55:30;1.30;;;0.35;;
48621;SDS011;34421;48.944;9.460;2022-07-26T07:57:56;2.58;;;0.40;;
48621;SDS011;34421;48.944;9.460;2022-07-26T08:00:21;1.08;;;0.43;;
48621;SDS011;34421;48.944;9.460;2022-07-26T08:02:46;0.90;;;0.43;;
48621;SDS011;34421;48.944;9.460;2022-07-26T08:05:12;0.95;;;0.45;;
48621;SDS011;34421;48.944;9.460;2022-07-26T08:07:38;1.05;;;0.30;;
48621;SDS011;34421;48.944;9.460;2022-07-26T08:10:04;0.63;;;0.40;;
48621;SDS011;34421;48.944;9.460;2022-07-26T08:12:30;0.77;;;0.40;;
48621;SDS011;34421;48.944;9.460;2022-07-26T08:14:55;0.77;;;0.50;;
48621;SDS011;34421;48.944;9.460;2022-07-26T08:17:21;0.73;;;0.35;;
48621;SDS011;34421;48.944;9.460;2022-07-26T08:19:46;0.93;;;0.45;;
48621;SDS011;34421;48.944;9.460;2022-07-26T08:22:11;1.50;;;0.40;;
48621;SDS011;34421;48.944;9.460;2022-07-26T08:24:37;1.98;;;0.60;;
48621;SDS011;34421;48.944;9.460;2022-07-26T08:27:02;1.40;;;0.50;;
48621;SDS011;34421;48.944;9.460;2022-07-26T08:29:28;0.52;;;0.40;;
48621;SDS011;34421;48.944;9.460;2022-07-26T08:31:53;0.77;;;0.40;;
48621;SDS011;34421;48.944;9.460;2022-07-26T08:34:19;0.35;;;0.30;;
48621;SDS011;34421;48.944;9.460;2022-07-26T08:36:45;1.20;;;0.30;;
48621;SDS011;34421;48.944;9.460;2022-07-26T08:39:11;0.70;;;0.30;;
48621;SDS011;34421;48.944;9.460;2022-07-26T08:41:36;1.27;;;0.50;;
48621;SDS011;34421;48.944;9.460;2022-07-26T08:44:05;0.50;;;0.28;;
48621;SDS011;34421;48.944;9.460;2022-07-26T08:46:33;1.50;;;0.38;;
48621;SDS011;34421;48.944;9.460;2022-07-26T08:49:03;1.90;;;0.47;;
48621;SDS011;34421;48.944;9.460;2022-07-26T08:51:30;1.27;;;0.40;;
48621;SDS011;34421;48.944;9.460;2022-07-26T08:53:57;0.88;;;0.30;;
48621;SDS011;34421;48.944;9.460;2022-07-26T08:56:26;2.97;;;0.50;;
48621;SDS011;34421;48.944;9.460;2022-07-26T08:58:51;0.75;;;0.20;;
48621;SDS011;34421;48.944;9.460;2022-07-26T09:01:16;1.20;;;0.22;;
48621;SDS011;34421;48.944;9.460;2022-07-26T09:03:43;1.40;;;0.30;;
48621;SDS011;34421;48.944;9.460;2022-07-26T09:06:10;1.27;;;0.40;;
48621;SDS011;34421;48.944;9.460;2022-07-26T09:08:40;0.68;;;0.25;;
48621;SDS011;34421;48.944;9.460;2022-07-26T09:14:03;0.93;;;0.30;;
48621;SDS011;34421;48.944;9.460;2022-07-26T09:16:29;0.60;;;0.32;;
48621;SDS011;34421;48.944;9.460;2022-07-26T09:18:55;0.52;;;0.22;;
48621;SDS011;34421;48.944;9.460;2022-07-26T09:21:41;1.50;;;0.30;;
48621;SDS011;34421;48.944;9.460;2022-07-26T09:24:07;0.82;;;0.32;;
48621;SDS011;34421;48.944;9.460;2022-07-26T09:26:34;0.82;;;0.30;;
48621;SDS011;34421;48.944;9.460;2022-07-26T09:29:04;2.00;;;0.50;;
48621;SDS011;34421;48.944;9.460;2022-07-26T09:31:35;1.15;;;0.40;;
48621;SDS011;34421;48.944;9.460;2022-07-26T09:34:02;0.90;;;0.30;;
48621;SDS011;34421;48.944;9.460;2022-07-26T09:36:30;0.55;;;0.10;;
48621;SDS011;34421;48.944;9.460;2022-07-26T09:39:00;2.60;;;0.40;;
48621;SDS011;34421;48.944;9.460;2022-07-26T09:41:29;1.35;;;0.30;;
48621;SDS011;34421;48.944;9.460;2022-07-26T09:43:57;0.90;;;0.47;;
48621;SDS011;34421;48.944;9.460;2022-07-26T09:46:25;0.60;;;0.30;;
48621;SDS011;34421;48.944;9.460;2022-07-26T09:48:54;1.30;;;0.20;;
48621;SDS011;34421;48.944;9.460;2022-07-26T09:56:53;0.70;;;0.20;;
48621;SDS011;34421;48.944;9.460;2022-07-26T09:59:20;0.70;;;0.22;;
48621;SDS011;34421;48.944;9.460;2022-07-26T10:01:47;0.70;;;0.30;;
48621;SDS011;34421;48.944;9.460;2022-07-26T10:04:13;1.15;;;0.30;;
48621;SDS011;34421;48.944;9.460;2022-07-26T10:06:39;0.50;;;0.20;;
48621;SDS011;34421;48.944;9.460;2022-07-26T10:09:05;1.40;;;0.40;;
48621;SDS011;34421;48.944;9.460;2022-07-26T10:17:01;0.93;;;0.22;;
48621;SDS011;34421;48.944;9.460;2022-07-26T10:19:45;0.38;;;0.20;;
48621;SDS011;34421;48.944;9.460;2022-07-26T10:27:41;0.85;;;0.45;;
48621;SDS011;34421;48.944;9.460;2022-07-26T10:35:28;1.40;;;0.28;;
48621;SDS011;34421;48.944;9.460;2022-07-26T10:38:04;0.82;;;0.43;;
48621;SDS011;34421;48.944;9.460;2022-07-26T10:40:31;1.48;;;0.40;;
48621;SDS011;34421;48.944;9.460;2022-07-26T10:45:35;0.47;;;0.20;;
48621;SDS011;34421;48.944;9.460;2022-07-26T10:50:34;0.50;;;0.20;;
48621;SDS011;34421;48.944;9.460;2022-07-26T10:52:59;0.82;;;0.30;;
48621;SDS011;34421;48.944;9.460;2022-07-26T10:55:26;0.75;;;0.28;;
48621;SDS011;34421;48.944;9.460;2022-07-26T10:57:51;1.15;;;0.50;;
48621;SDS011;34421;48.944;9.460;2022-07-26T11:00:21;1.45;;;0.38;;
48621;SDS011;34421;48.944;9.460;2022-07-26T11:02:55;0.77;;;0.43;;
48621;SDS011;34421;48.944;9.460;2022-07-26T11:05:23;0.95;;;0.40;;
48621;SDS011;34421;48.944;9.460;2022-07-26T11:10:30;3.22;;;0.52;;
48621;SDS011;34421;48.944;9.460;2022-07-26T11:15:50;1.33;;;0.52;;
48621;SDS011;34421;48.944;9.460;2022-07-26T11:18:24;0.25;;;0.20;;
48621;SDS011;34421;48.944;9.460;2022-07-26T11:20:54;1.30;;;0.30;;
48621;SDS011;34421;48.944;9.460;2022-07-26T11:23:25;0.40;;;0.20;;
48621;SDS011;34421;48.944;9.460;2022-07-26T11:31:23;0.30;;;0.20;;
48621;SDS011;34421;48.944;9.460;2022-07-26T11:33:52;0.40;;;0.20;;
48621;SDS011;34421;48.944;9.460;2022-07-26T11:36:52;1.10;;;0.25;;
48621;SDS011;34421;48.944;9.460;2022-07-26T11:39:15;1.30;;;0.32;;
48621;SDS011;34421;48.944;9.460;2022-07-26T11:41:45;0.68;;;0.30;;
48621;SDS011;34421;48.944;9.460;2022-07-26T11:44:14;4.18;;;0.43;;
48621;SDS011;34421;48.944;9.460;2022-07-26T11:46:41;1.08;;;0.30;;
48621;SDS011;34421;48.944;9.460;2022-07-26T11:49:12;0.55;;;0.30;;
48621;SDS011;34421;48.944;9.460;2022-07-26T11:51:39;0.32;;;0.25;;
48621;SDS011;34421;48.944;9.460;2022-07-26T11:54:05;1.60;;;0.28;;
48621;SDS011;34421;48.944;9.460;2022-07-26T11:56:30;0.30;;;0.20;;
48621;SDS011;34421;48.944;9.460;2022-07-26T11:58:56;0.60;;;0.30;;
48621;SDS011;34421;48.944;9.460;2022-07-26T12:01:23;0.25;;;0.20;;
48621;SDS011;34421;48.944;9.460;2022-07-26T12:03:50;0.65;;;0.30;;
48621;SDS011;34421;48.944;9.460;2022-07-26T12:06:21;1.00;;;0.40;;
48621;SDS011;34421;48.944;9.460;2022-07-26T12:08:49;1.52;;;0.30;;
48621;SDS011;34421;48.944;9.460;2022-07-26T12:11:19;0.82;;;0.30;;
48621;SDS011;34421;48.944;9.460;2022-07-26T12:13:58;0.70;;;0.38;;
48621;SDS011;34421;48.944;9.460;2022-07-26T12:19:08;1.58;;;0.30;;
48621;SDS011;34421;48.944;9.460;2022-07-26T12:27:25;0.43;;;0.22;;
48621;SDS011;34421;48.944;9.460;2022-07-26T12:29:53;0.85;;;0.20;;
48621;SDS011;34421;48.944;9.460;2022-07-26T12:32:36;0.35;;;0.20;;
48621;SDS011;34421;48.944;9.460;2022-07-26T12:35:07;0.55;;;0.20;;
48621;SDS011;34421;48.944;9.460;2022-07-26T12:37:35;0.68;;;0.30;;
48621;SDS011;34421;48.944;9.460;2022-07-26T12:40:19;0.70;;;0.22;;
48621;SDS011;34421;48.944;9.460;2022-07-26T12:45:14;0.20;;;0.10;;
48621;SDS011;34421;48.944;9.460;2022-07-26T12:47:42;0.60;;;0.30;;
48621;SDS011;34421;48.944;9.460;2022-07-26T12:50:09;0.55;;;0.28;;
48621;SDS011;34421;48.944;9.460;2022-07-26T12:52:36;0.98;;;0.20;;
48621;SDS011;34421;48.944;9.460;2022-07-26T12:55:03;0.38;;;0.10;;
48621;SDS011;34421;48.944;9.460;2022-07-26T12:57:30;0.20;;;0.20;;
48621;SDS011;34421;48.944;9.460;2022-07-26T12:59:55;0.55;;;0.20;;
48621;SDS011;34421;48.944;9.460;2022-07-26T13:02:21;0.30;;;0.20;;
48621;SDS011;34421;48.944;9.460;2022-07-26T13:04:47;0.40;;;0.20;;
48621;SDS011;34421;48.944;9.460;2022-07-26T13:07:14;0.28;;;0.20;;
48621;SDS011;34421;48.944;9.460;2022-07-26T13:09:41;0.40;;;0.20;;
48621;SDS011;34421;48.944;9.460;2022-07-26T13:12:07;0.47;;;0.20;;
48621;SDS011;34421;48.944;9.460;2022-07-26T13:14:34;0.43;;;0.20;;
48621;SDS011;34421;48.944;9.460;2022-07-26T13:17:00;0.30;;;0.13;;
48621;SDS011;34421;48.944;9.460;2022-07-26T13:19:27;0.68;;;0.20;;
48621;SDS011;34421;48.944;9.460;2022-07-26T13:21:54;0.77;;;0.35;;
48621;SDS011;34421;48.944;9.460;2022-07-26T13:24:21;0.68;;;0.20;;
48621;SDS011;34421;48.944;9.460;2022-07-26T13:26:47;0.43;;;0.20;;
48621;SDS011;34421;48.944;9.460;2022-07-26T13:29:12;1.65;;;0.20;;
48621;SDS011;34421;48.944;9.460;2022-07-26T13:31:37;0.65;;;0.20;;
48621;SDS011;34421;48.944;9.460;2022-07-26T13:34:03;0.50;;;0.25;;
48621;SDS011;34421;48.944;9.460;2022-07-26T13:36:29;0.35;;;0.10;;
48621;SDS011;34421;48.944;9.460;2022-07-26T13:38:54;0.60;;;0.20;;
48621;SDS011;34421;48.944;9.460;2022-07-26T13:41:20;0.80;;;0.20;;
48621;SDS011;34421;48.944;9.460;2022-07-26T13:43:45;0.75;;;0.20;;
48621;SDS011;34421;48.944;9.460;2022-07-26T13:46:11;0.55;;;0.10;;
48621;SDS011;34421;48.944;9.460;2022-07-26T13:48:36;0.38;;;0.20;;
48621;SDS011;34421;48.944;9.460;2022-07-26T13:51:01;0.17;;;0.13;;
48621;SDS011;34421;48.944;9.460;2022-07-26T13:53:26;0.88;;;0.30;;
48621;SDS011;34421;48.944;9.460;2022-07-26T13:55:54;1.23;;;0.60;;
48621;SDS011;34421;48.944;9.460;2022-07-26T13:58:19;0.57;;;0.20;;
48621;SDS011;34421;48.944;9.460;2022-07-26T14:00:45;0.20;;;0.20;;
48621;SDS011;34421;48.944;9.460;2022-07-26T14:03:11;1.67;;;0.20;;
48621;SDS011;34421;48.944;9.460;2022-07-26T14:05:37;0.63;;;0.20;;
48621;SDS011;34421;48.944;9.460;2022-07-26T14:08:02;0.38;;;0.10;;
48621;SDS011;34421;48.944;9.460;2022-07-26T14:10:28;1.02;;;0.20;;
48621;SDS011;34421;48.944;9.460;2022-07-26T14:12:54;0.80;;;0.28;;
48621;SDS011;34421;48.944;9.460;2022-07-26T14:15:19;0.52;;;0.25;;
48621;SDS011;34421;48.944;9.460;2022-07-26T14:17:44;0.70;;;0.30;;
48621;SDS011;34421;48.944;9.460;2022-07-26T14:20:11;0.65;;;0.20;;
48621;SDS011;34421;48.944;9.460;2022-07-26T14:22:37;0.85;;;0.30;;
48621;SDS011;34421;48.944;9.460;2022-07-26T14:25:03;0.60;;;0.20;;
48621;SDS011;34421;48.944;9.460;2022-07-26T14:27:30;0.60;;;0.30;;
48621;SDS011;34421;48.944;9.460;2022-07-26T14:29:55;0.40;;;0.13;;
48621;SDS011;34421;48.944;9.460;2022-07-26T14:32:20;0.68;;;0.20;;
48621;SDS011;34421;48.944;9.460;2022-07-26T14:34:46;0.22;;;0.20;;
48621;SDS011;34421;48.944;9.460;2022-07-26T14:37:11;0.17;;;0.10;;
48621;SDS011;34421;48.944;9.460;2022-07-26T14:39:36;0.40;;;0.25;;
48621;SDS011;34421;48.944;9.460;2022-07-26T14:42:02;0.63;;;0.20;;
48621;SDS011;34421;48.944;9.460;2022-07-26T14:44:27;0.98;;;0.20;;
48621;SDS011;34421;48.944;9.460;2022-07-26T14:46:53;0.60;;;0.28;;
48621;SDS011;34421;48.944;9.460;2022-07-26T14:49:18;0.88;;;0.20;;
48621;SDS011;34421;48.944;9.460;2022-07-26T14:51:44;0.55;;;0.15;;
48621;SDS011;34421;48.944;9.460;2022-07-26T14:54:11;0.40;;;0.20;;
48621;SDS011;34421;48.944;9.460;2022-07-26T14:56:37;0.55;;;0.17;;
48621;SDS011;34421;48.944;9.460;2022-07-26T14:59:02;0.50;;;0.20;;
48621;SDS011;34421;48.944;9.460;2022-07-26T15:01:28;0.20;;;0.20;;
48621;SDS011;34421;48.944;9.460;2022-07-26T15:03:53;0.95;;;0.20;;
48621;SDS011;34421;48.944;9.460;2022-07-26T15:06:19;1.27;;;0.40;;
48621;SDS011;34421;48.944;9.460;2022-07-26T15:08:44;0.95;;;0.28;;
48621;SDS011;34421;48.944;9.460;2022-07-26T15:11:10;0.73;;;0.30;;
48621;SDS011;34421;48.944;9.460;2022-07-26T15:13:35;0.47;;;0.20;;
48621;SDS011;34421;48.944;9.460;2022-07-26T15:16:00;1.35;;;0.43;;
48621;SDS011;34421;48.944;9.460;2022-07-26T15:18:27;0.52;;;0.20;;
48621;SDS011;34421;48.944;9.460;2022-07-26T15:20:52;0.98;;;0.17;;
48621;SDS011;34421;48.944;9.460;2022-07-26T15:23:18;0.70;;;0.20;;
48621;SDS011;34421;48.944;9.460;2022-07-26T15:25:43;0.40;;;0.20;;
48621;SDS011;34421;48.944;9.460;2022-07-26T15:28:09;2.78;;;0.35;;
48621;SDS011;34421;48.944;9.460;2022-07-26T15:30:34;0.30;;;0.20;;
48621;SDS011;34421;48.944;9.460;2022-07-26T15:33:00;0.50;;;0.30;;
48621;SDS011;34421;48.944;9.460;2022-07-26T15:35:26;1.00;;;0.30;;